Aeroporto :
LOGIN :

Iscrizione | Disclaimer

   EN    FR    IT 

 










Sommario :    VFR   VFR Marginale   IFR   IFR Intensivo   IFR Molto Intensivo
Visibilità : 
Base nubi : 
>= 8 km
>= 3000ft
5 / 8 km
1000 / 3000 ft
1500m / 5 km
500 / 1000 ft
800 / 1500m
200 / 500 ft
< 800m
< 200 ft
Simboli :   Temporali  Nebbia  Neve Forte  Precipitazioni Forti  Vento > 20 kt
SIGMETs :   Varie  Temporali  Ghiacco  Turbolenza  Onda orograficha  Ceneri Vulcaniche






- Altitudine del aeroporto : 72 ft
- Codice IATA : UDE


EHVK - Volkel Airbase

ULTIMO METAR :
  • 120055Z AUTO 20008KT 170V240 9999 SCT010 BKN012 OVC015 05/04 Q1001 REDZ GRN

METARs OBSOLETI :
  • 120042Z AUTO 21010KT 180V240 9999 SCT014 SCT023 BKN045 05/04 Q1001 GRN
  • 120030Z AUTO 21010KT 180V240 9999 -RADZ FEW012 BKN015CB BKN019 05/04 Q1001 WHT
  • 120025Z AUTO 22010KT 9999 DZ FEW009 SCT011 BKN015CB 05/04 Q1001 GRN
  • 120003Z AUTO 21009KT 180V240 9999 FEW008 SCT009 BKN011 FEW015CB 05/04 Q1001 GRN
  • 112325Z AUTO 20008KT 160V230 9999 BKN031 BKN160 05/04 Q1001 BLU
  • 112255Z AUTO 20009KT 170V240 9999 FEW008 BKN077 BKN082 05/04 Q1001 BLU
  • 112225Z AUTO 20010KT 160V230 9999 FEW042 SCT048 BKN056 05/04 Q1001 BLU

TAF TAF EHVK
Valido dal 11 a 22 ore il 12 a 10 ore UTC


112129Z 1122/1210 21010KT 9999 SCT020
PROB40
TEMPO 1122/1201 4500 SHRA SCT006 SCT016CB BKN020
PROB40 1203/1210 BKN007



MetMap, La meteo Aeronautica in un colpo d'occhio ! - Copyright ORBIFLY Dicembre 2007 - Disclaimer

ORBIFLY MET'MAP TEAM :

Programmazione e sviluppo : Alexandra Zaïnal
Concezione e sviluppo : Baudouin d'Aumeries
Co-Programmazione e sviluppo : Marc-Olivier Méhu
Supporto tecnico e logistico : Manuel Goepfert
Aiuto per la traduzione : Arnaldo La Scala

Contatto : metmap@orbifly.com




FONTI E CREDITI :

   NOAA